Time;durP1;ratioP1;P1;durP2;ratioP2;P2;SDS_P1;SDS_P2;PMS_P1;PMS_P2;Temp;Humidity;BMP_temperature;BMP_pressure;BME280_temperature;BME280_humidity;BME280_pressure;Samples;Min_cycle;Max_cycle;Signal;HPM_P1;HPM_P2
2022/07/04 00:00:28;;;;;;;11.73;4.72;;;;;;;21.37;71.30;93299.25;2068000;69;20179;-73
2022/07/04 00:02:55;;;;;;;10.82;4.60;;;;;;;21.78;69.20;93297.59;2071329;69;20566;-74
2022/07/04 00:05:22;;;;;;;12.77;5.50;;;;;;;22.15;66.26;93301.50;2071379;69;20164;-74
2022/07/04 00:07:49;;;;;;;11.90;4.60;;;;;;;22.15;66.22;93295.75;2071310;69;20625;-74
2022/07/04 00:10:17;;;;;;;8.02;4.00;;;;;;;22.19;65.98;93290.16;2071264;69;20148;-75
2022/07/04 00:12:44;;;;;;;7.30;3.42;;;;;;;21.85;64.99;93284.88;2071678;69;20591;-74
2022/07/04 00:22:46;;;;;;;8.57;3.92;;;;;;;21.78;66.22;93334.84;2070346;69;20683;-74
2022/07/04 00:25:13;;;;;;;9.88;3.75;;;;;;;21.86;65.38;93340.09;2068344;69;20625;-75
2022/07/04 00:27:38;;;;;;;9.25;3.58;;;;;;;21.75;66.57;93362.69;2068517;69;20140;-76
2022/07/04 00:30:05;;;;;;;9.73;3.50;;;;;;;21.75;66.32;93361.97;2071738;69;20268;-76
2022/07/04 00:32:31;;;;;;;7.68;4.00;;;;;;;21.71;67.42;93347.50;2071707;69;20164;-74
2022/07/04 00:34:56;;;;;;;9.27;3.67;;;;;;;22.08;66.75;93341.44;2071521;69;20534;-74
2022/07/04 00:37:22;;;;;;;8.43;3.60;;;;;;;21.55;69.39;93319.84;2071854;69;20152;-75
2022/07/04 00:39:48;;;;;;;9.02;3.30;;;;;;;21.80;67.19;93311.97;2071693;69;20169;-74
2022/07/04 00:42:13;;;;;;;8.50;3.33;;;;;;;21.97;65.57;93305.28;2068449;69;20512;-74
2022/07/04 00:44:39;;;;;;;5.88;3.40;;;;;;;21.81;66.42;93302.72;2071667;69;20613;-74
2022/07/04 00:47:06;;;;;;;9.80;3.42;;;;;;;21.65;68.08;93307.22;2065762;69;20143;-75
2022/07/04 00:49:32;;;;;;;7.95;3.15;;;;;;;21.75;66.88;93304.66;2071752;69;20234;-75
2022/07/04 00:52:00;;;;;;;6.15;2.90;;;;;;;21.50;68.88;93301.09;2071851;69;20132;-75
2022/07/04 00:54:29;;;;;;;9.18;3.17;;;;;;;21.64;67.57;93305.78;2071645;69;20193;-75
2022/07/04 00:56:56;;;;;;;6.72;2.97;;;;;;;21.72;68.34;93309.63;2068354;69;20148;-75
2022/07/04 00:59:22;;;;;;;4.57;2.65;;;;;;;21.67;67.57;93298.69;2071728;69;20128;-75
2022/07/04 01:01:49;;;;;;;6.57;2.50;;;;;;;21.70;66.54;93289.47;2068380;69;20151;-75
2022/07/04 01:04:15;;;;;;;2.63;2.22;;;;;;;21.16;67.14;93268.50;2071594;69;20687;-76
2022/07/04 01:06:42;;;;;;;5.05;2.30;;;;;;;20.69;68.87;93253.47;2068242;69;20168;-74
2022/07/04 01:09:08;;;;;;;2.53;1.90;;;;;;;20.66;67.94;93242.63;2071696;69;20176;-74
2022/07/04 01:11:34;;;;;;;3.83;1.85;;;;;;;21.07;67.16;93221.72;2068248;69;20225;-74
2022/07/04 01:13:59;;;;;;;5.13;2.08;;;;;;;21.12;66.70;93216.84;2068340;69;20150;-73
2022/07/04 01:16:26;;;;;;;3.55;2.13;;;;;;;21.06;66.37;93221.00;2071745;69;20136;-74
2022/07/04 01:18:53;;;;;;;6.05;1.90;;;;;;;21.16;66.72;93216.97;2071564;69;20645;-74
2022/07/04 01:21:19;;;;;;;5.32;2.00;;;;;;;21.28;65.63;93223.81;2071846;69;20177;-74
2022/07/04 01:23:44;;;;;;;4.00;2.03;;;;;;;20.83;67.62;93201.69;2071362;69;20524;-72
2022/07/04 01:26:11;;;;;;;3.40;2.10;;;;;;;20.93;68.40;93213.44;2071781;69;20160;-72
2022/07/04 01:28:37;;;;;;;3.83;2.20;;;;;;;21.18;67.58;93205.59;2071732;69;20176;-74
2022/07/04 01:31:03;;;;;;;2.65;2.13;;;;;;;20.83;69.50;93209.56;2071636;69;20193;-74
2022/07/04 01:33:28;;;;;;;2.45;2.00;;;;;;;20.51;70.06;93218.56;2071216;69;20195;-77
2022/07/04 01:35:54;;;;;;;4.18;2.30;;;;;;;20.83;69.67;93221.00;2068150;69;20209;-74
2022/07/04 01:38:20;;;;;;;3.00;2.10;;;;;;;21.08;67.04;93216.75;2068139;69;20156;-75
2022/07/04 01:40:45;;;;;;;4.43;2.10;;;;;;;20.89;68.84;93221.94;2071639;69;20142;-73
2022/07/04 01:43:11;;;;;;;5.45;1.77;;;;;;;20.97;69.28;93227.16;2071740;69;20152;-74
2022/07/04 01:45:37;;;;;;;5.45;2.30;;;;;;;20.82;69.77;93231.72;2071560;69;20648;-73
2022/07/04 01:48:08;;;;;;;3.40;1.98;;;;;;;21.08;67.38;93228.22;2068261;69;20156;-73
2022/07/04 01:50:34;;;;;;;4.43;1.92;;;;;;;21.03;68.19;93210.19;2071575;69;20587;-73
2022/07/04 01:53:01;;;;;;;5.13;1.98;;;;;;;21.09;67.37;93192.44;2068406;69;20602;-73
2022/07/04 01:55:27;;;;;;;4.95;2.05;;;;;;;20.95;67.61;93187.03;2068177;69;20128;-73
2022/07/04 01:57:53;;;;;;;7.18;1.98;;;;;;;20.98;67.42;93183.56;2068190;69;20218;-73
2022/07/04 02:03:03;;;;;;;3.05;2.10;;;;;;;20.91;68.20;93181.19;2071536;69;20148;-73
2022/07/04 02:05:29;;;;;;;4.45;2.30;;;;;;;20.73;68.76;93181.38;2071566;69;20125;-74
2022/07/04 02:07:54;;;;;;;3.30;1.90;;;;;;;20.72;68.93;93169.19;2071565;69;20156;-75
2022/07/04 02:10:20;;;;;;;2.05;1.88;;;;;;;20.64;69.79;93168.94;2067637;69;20615;-74
2022/07/04 02:13:01;;;;;;;2.35;1.75;;;;;;;20.65;69.80;93172.53;2067835;69;20218;-73
2022/07/04 02:15:36;;;;;;;2.67;2.15;;;;;;;20.78;68.43;93171.50;2068132;69;20162;-73
2022/07/04 02:18:03;;;;;;;3.20;2.00;;;;;;;20.62;69.36;93166.03;2068068;69;20150;-74
2022/07/04 02:20:30;;;;;;;3.65;2.00;;;;;;;20.73;67.85;93175.66;2067769;69;20168;-74
2022/07/04 02:22:56;;;;;;;2.67;2.00;;;;;;;20.72;68.65;93191.34;2068114;69;20153;-77
2022/07/04 02:25:22;;;;;;;2.80;2.15;;;;;;;20.58;69.66;93185.19;2068261;69;20128;-76
2022/07/04 02:27:53;;;;;;;5.15;2.30;;;;;;;20.45;70.48;93184.03;2068520;69;20137;-77
2022/07/04 02:30:18;;;;;;;8.02;1.90;;;;;;;20.52;69.65;93188.56;2067861;69;20147;-76
2022/07/04 02:32:44;;;;;;;3.30;2.25;;;;;;;20.44;69.71;93171.88;2068388;69;20145;-76
2022/07/04 02:35:10;;;;;;;2.70;1.98;;;;;;;20.39;70.33;93163.81;2067773;69;20159;-75
2022/07/04 02:37:38;;;;;;;3.10;1.90;;;;;;;20.37;70.15;93160.91;2067494;69;20149;-75
2022/07/04 02:40:04;;;;;;;2.75;1.92;;;;;;;20.46;69.14;93154.78;2067564;69;20578;-75
2022/07/04 02:42:31;;;;;;;2.83;2.17;;;;;;;20.42;69.58;93163.22;2068426;69;20673;-75
2022/07/04 02:44:58;;;;;;;4.65;1.90;;;;;;;20.14;71.29;93156.59;2068337;69;20214;-74
2022/07/04 02:47:23;;;;;;;2.40;1.90;;;;;;;20.17;70.47;93153.16;2068395;69;20141;-76
2022/07/04 02:49:49;;;;;;;2.83;2.00;;;;;;;20.19;70.20;93158.91;2068305;69;20152;-76
2022/07/04 02:52:15;;;;;;;4.57;2.00;;;;;;;20.23;69.97;93166.91;2068332;69;20148;-75
2022/07/04 02:54:41;;;;;;;3.85;2.13;;;;;;;20.22;69.95;93168.31;2067649;69;20160;-75
2022/07/04 02:57:07;;;;;;;2.10;1.90;;;;;;;20.11;71.04;93163.63;2068328;69;20133;-76
2022/07/04 02:59:33;;;;;;;5.55;2.20;;;;;;;20.10;70.91;93159.31;2068303;69;20136;-76
2022/07/04 03:01:59;;;;;;;4.28;2.08;;;;;;;19.89;72.45;93160.78;2068309;69;20144;-76
2022/07/04 03:04:24;;;;;;;4.70;2.10;;;;;;;19.89;71.37;93158.66;2067731;69;20152;-75
2022/07/04 03:06:50;;;;;;;5.15;1.98;;;;;;;20.04;71.25;93168.44;2068309;69;20160;-75
2022/07/04 03:09:16;;;;;;;4.30;1.80;;;;;;;20.08;70.33;93159.28;2067594;69;20160;-74
2022/07/04 03:11:43;;;;;;;4.30;2.10;;;;;;;19.94;71.16;93154.53;2068295;69;20145;-74
2022/07/04 03:14:09;;;;;;;2.53;1.98;;;;;;;19.86;71.57;93165.69;2068383;69;20271;-74
2022/07/04 03:16:34;;;;;;;3.78;2.08;;;;;;;19.90;71.32;93162.25;2068234;69;20224;-73
2022/07/04 03:19:00;;;;;;;3.70;2.28;;;;;;;19.72;72.51;93162.34;2068234;69;20308;-74
2022/07/04 03:21:25;;;;;;;4.22;1.90;;;;;;;19.96;69.69;93160.31;2068194;69;20160;-74
2022/07/04 03:23:57;;;;;;;3.05;1.90;;;;;;;19.81;71.94;93161.25;2068196;69;20183;-74
2022/07/04 03:26:29;;;;;;;3.35;2.22;;;;;;;19.67;72.43;93155.78;2068373;69;20596;-74
2022/07/04 03:28:55;;;;;;;2.00;1.90;;;;;;;19.72;71.83;93153.78;2068356;69;20155;-74
2022/07/04 03:31:22;;;;;;;4.43;2.30;;;;;;;19.68;72.18;93153.66;2068214;69;20172;-75
2022/07/04 03:33:47;;;;;;;3.88;2.17;;;;;;;19.71;71.58;93164.50;2068279;69;20628;-75
2022/07/04 03:36:13;;;;;;;4.30;2.10;;;;;;;19.68;71.77;93150.78;2068353;69;20244;-75
2022/07/04 03:38:39;;;;;;;3.72;2.10;;;;;;;19.84;71.18;93147.75;2068108;69;20623;-74
2022/07/04 03:41:05;;;;;;;4.22;2.42;;;;;;;19.78;71.89;93163.28;2068204;69;20148;-74
2022/07/04 03:43:30;;;;;;;4.03;2.20;;;;;;;19.64;72.17;93162.06;2068168;69;20580;-74
2022/07/04 03:45:56;;;;;;;3.00;2.13;;;;;;;19.82;71.02;93161.97;2068269;69;20187;-74
2022/07/04 03:48:21;;;;;;;3.42;2.13;;;;;;;19.61;72.04;93158.44;2065556;69;20144;-74
2022/07/04 03:50:47;;;;;;;4.60;2.15;;;;;;;19.65;71.46;93158.53;2068712;69;20152;-74
2022/07/04 03:53:13;;;;;;;2.90;2.35;;;;;;;19.60;72.09;93156.94;2068050;69;20156;-74
2022/07/04 03:55:39;;;;;;;4.88;2.28;;;;;;;19.65;72.14;93163.53;2068234;69;20198;-74
2022/07/04 03:58:05;;;;;;;3.88;2.03;;;;;;;19.66;71.86;93162.88;2068704;69;20153;-74
2022/07/04 04:00:31;;;;;;;5.07;2.20;;;;;;;19.52;72.35;93165.94;2068664;69;20141;-76
2022/07/04 04:02:58;;;;;;;3.25;2.10;;;;;;;19.49;72.67;93172.25;2068647;69;20246;-75
2022/07/04 04:05:26;;;;;;;9.15;2.30;;;;;;;19.53;72.33;93173.13;2068697;69;20231;-74
2022/07/04 04:07:54;;;;;;;2.95;2.50;;;;;;;19.69;71.09;93175.09;2068625;69;20145;-76
2022/07/04 04:10:20;;;;;;;5.68;2.75;;;;;;;19.72;71.30;93182.34;2071436;69;20137;-76
2022/07/04 04:12:46;;;;;;;2.97;2.42;;;;;;;19.66;71.58;93179.28;2071942;69;20136;-76
2022/07/04 04:15:11;;;;;;;4.13;2.50;;;;;;;19.59;72.47;93178.31;2068619;69;20172;-76
2022/07/04 04:17:37;;;;;;;4.55;2.30;;;;;;;19.53;73.16;93180.97;2065841;69;20140;-75
2022/07/04 04:20:03;;;;;;;4.35;2.28;;;;;;;19.59;72.75;93184.03;2072104;69;20148;-76
2022/07/04 04:22:29;;;;;;;4.53;2.38;;;;;;;19.67;72.06;93189.31;2071986;69;20148;-76
2022/07/04 04:24:56;;;;;;;3.75;2.25;;;;;;;19.69;71.50;93189.38;2071852;69;20148;-77
2022/07/04 04:27:22;;;;;;;4.05;2.30;;;;;;;19.66;71.98;93196.44;2071983;69;20148;-77
2022/07/04 04:29:48;;;;;;;3.53;2.42;;;;;;;19.66;72.51;93197.16;2072182;69;20140;-75
2022/07/04 04:32:13;;;;;;;5.47;2.72;;;;;;;19.68;72.16;93185.78;2068775;69;20144;-75
2022/07/04 04:34:39;;;;;;;6.25;2.20;;;;;;;19.67;72.11;93186.47;2068606;69;20148;-76
2022/07/04 04:37:05;;;;;;;3.95;2.75;;;;;;;19.94;70.03;93183.13;2068654;69;20206;-78
2022/07/04 04:39:30;;;;;;;5.43;2.28;;;;;;;19.90;70.77;93185.09;2068528;69;20137;-76
2022/07/04 04:41:56;;;;;;;4.43;2.22;;;;;;;19.80;72.38;93186.22;2072067;69;20152;-77
2022/07/04 04:44:21;;;;;;;4.32;2.28;;;;;;;19.85;71.78;93181.38;2071956;69;20175;-76
2022/07/04 04:46:47;;;;;;;5.03;2.30;;;;;;;19.85;72.49;93180.66;2065797;69;20155;-77
2022/07/04 04:49:13;;;;;;;4.07;2.65;;;;;;;19.92;71.50;93190.88;2072085;69;20155;-76
2022/07/04 04:51:40;;;;;;;3.28;2.60;;;;;;;19.90;71.86;93180.13;2071938;69;20176;-75
2022/07/04 04:54:06;;;;;;;4.00;2.28;;;;;;;19.90;72.08;93179.38;2068538;69;20679;-75
2022/07/04 04:56:31;;;;;;;4.97;2.50;;;;;;;19.94;71.24;93183.13;2071958;69;20164;-76
2022/07/04 04:58:57;;;;;;;5.50;2.53;;;;;;;19.99;71.67;93187.56;2068573;69;20128;-77
2022/07/04 05:01:23;;;;;;;3.08;2.72;;;;;;;19.91;72.67;93187.28;2072064;69;20208;-75
2022/07/04 05:03:48;;;;;;;5.85;2.83;;;;;;;19.89;73.09;93189.38;2071976;69;20144;-77
2022/07/04 05:06:14;;;;;;;4.55;2.10;;;;;;;19.92;72.16;93180.19;2071956;69;20150;-77
2022/07/04 05:08:40;;;;;;;4.82;2.65;;;;;;;20.38;67.80;93185.22;2071779;69;20138;-77
2022/07/04 05:11:05;;;;;;;5.00;2.83;;;;;;;20.31;69.70;93184.31;2071939;69;20140;-78
2022/07/04 05:13:31;;;;;;;3.92;2.63;;;;;;;20.06;71.24;93180.66;2071967;69;20156;-77
2022/07/04 05:15:57;;;;;;;5.22;2.85;;;;;;;20.09;72.45;93187.16;2071917;69;20144;-76
2022/07/04 05:18:23;;;;;;;4.55;2.50;;;;;;;20.09;72.47;93183.59;2072017;69;20148;-76
2022/07/04 05:20:48;;;;;;;4.20;2.80;;;;;;;20.20;71.95;93191.81;2071918;69;20155;-77
2022/07/04 05:23:14;;;;;;;5.72;3.33;;;;;;;19.59;74.46;93194.72;2071891;69;20136;-76
2022/07/04 05:25:39;;;;;;;5.30;2.63;;;;;;;19.67;74.41;93192.91;2068554;69;20147;-77
2022/07/04 05:28:05;;;;;;;3.33;2.85;;;;;;;20.03;73.61;93190.56;2071981;69;20228;-77
2022/07/04 05:30:31;;;;;;;3.40;2.90;;;;;;;20.26;71.76;93186.31;2071914;69;20149;-77
2022/07/04 05:32:58;;;;;;;4.03;3.08;;;;;;;20.31;71.41;93187.19;2071899;69;20594;-74
2022/07/04 05:35:24;;;;;;;5.53;2.95;;;;;;;20.03;72.63;93192.69;2071780;69;20170;-76
2022/07/04 05:37:50;;;;;;;6.55;2.60;;;;;;;20.37;71.57;93183.78;2071868;69;20148;-77
2022/07/04 05:40:15;;;;;;;3.45;2.80;;;;;;;20.46;71.96;93183.38;2071721;69;20143;-76
2022/07/04 05:42:41;;;;;;;5.40;3.00;;;;;;;20.49;72.05;93190.66;2071817;69;20235;-77
2022/07/04 05:45:07;;;;;;;4.88;3.15;;;;;;;20.39;73.19;93200.97;2071828;69;20159;-75
2022/07/04 05:47:33;;;;;;;4.47;2.80;;;;;;;20.53;72.09;93204.34;2071938;69;20171;-75
2022/07/04 05:50:00;;;;;;;4.28;2.95;;;;;;;20.53;71.53;93202.22;2071820;69;20144;-75
2022/07/04 05:52:26;;;;;;;3.33;2.88;;;;;;;20.67;70.96;93193.34;2071805;69;20144;-75
2022/07/04 05:54:51;;;;;;;3.60;2.67;;;;;;;20.70;70.82;93197.72;2071687;69;20164;-74
2022/07/04 05:57:17;;;;;;;6.57;3.10;;;;;;;20.69;70.16;93193.41;2071816;69;20255;-75
2022/07/04 05:59:44;;;;;;;5.25;2.75;;;;;;;20.72;70.79;93197.06;2071863;69;20268;-75
2022/07/04 06:02:10;;;;;;;5.97;3.17;;;;;;;20.81;71.64;93193.78;2071781;69;20548;-75
2022/07/04 06:04:35;;;;;;;6.90;2.80;;;;;;;20.92;71.86;93196.94;2071925;69;20148;-72
2022/07/04 06:07:01;;;;;;;6.47;3.13;;;;;;;20.89;71.38;93192.56;2071929;69;20623;-73
2022/07/04 06:09:26;;;;;;;4.25;2.95;;;;;;;21.00;69.65;93191.47;2071520;69;20635;-77
2022/07/04 06:11:52;;;;;;;5.35;2.80;;;;;;;21.02;71.19;93195.13;2068435;69;20179;-73
2022/07/04 06:14:18;;;;;;;4.30;3.38;;;;;;;20.96;71.18;93182.78;2071750;69;20135;-75
2022/07/04 06:16:43;;;;;;;4.65;3.00;;;;;;;21.01;69.14;93190.06;2071769;69;20594;-78
2022/07/04 06:19:09;;;;;;;3.95;2.97;;;;;;;21.21;68.96;93193.53;2071826;69;20159;-77
2022/07/04 06:21:34;;;;;;;5.10;3.00;;;;;;;21.09;69.06;93206.75;2071840;69;20144;-77
2022/07/04 06:24:01;;;;;;;5.53;2.95;;;;;;;20.69;71.22;93215.56;2071698;69;20152;-75
2022/07/04 06:26:26;;;;;;;6.32;3.15;;;;;;;21.25;68.41;93215.81;2071740;69;20513;-72
2022/07/04 06:28:52;;;;;;;3.90;3.13;;;;;;;21.00;70.32;93222.97;2071780;69;20213;-72
2022/07/04 06:31:18;;;;;;;3.42;3.10;;;;;;;20.97;70.28;93222.16;2071884;69;20152;-73
2022/07/04 06:36:28;;;;;;;4.43;3.20;;;;;;;21.29;69.38;93236.72;2071974;69;20147;-76
2022/07/04 06:38:53;;;;;;;5.20;2.97;;;;;;;21.16;68.22;93237.03;2071724;69;20128;-75
2022/07/04 06:41:19;;;;;;;5.28;3.05;;;;;;;20.96;70.43;93237.88;2068426;69;20142;-76
2022/07/04 06:43:45;;;;;;;3.58;3.00;;;;;;;21.45;69.33;93238.63;2071892;69;20530;-75
2022/07/04 06:46:10;;;;;;;4.32;2.90;;;;;;;21.67;68.20;93235.66;2071687;69;20132;-75
2022/07/04 06:48:36;;;;;;;3.95;3.05;;;;;;;21.75;68.18;93241.63;2071814;69;20175;-74
2022/07/04 06:51:02;;;;;;;3.78;2.92;;;;;;;21.74;67.75;93243.03;2068384;69;20246;-73
2022/07/04 06:53:28;;;;;;;3.83;2.80;;;;;;;21.60;69.21;93242.63;2071680;69;20172;-73
2022/07/04 06:55:54;;;;;;;3.97;3.00;;;;;;;21.59;68.63;93250.50;2071848;69;20216;-75
2022/07/04 06:58:19;;;;;;;5.68;3.10;;;;;;;21.56;69.01;93255.41;2071658;69;20669;-78
2022/07/04 07:00:45;;;;;;;5.95;2.72;;;;;;;21.50;69.47;93263.84;2068416;69;20213;-74
2022/07/04 07:03:11;;;;;;;7.03;2.70;;;;;;;21.63;69.21;93269.94;2068310;69;20156;-76
2022/07/04 07:05:36;;;;;;;4.75;2.55;;;;;;;21.67;68.38;93264.31;2071641;69;20148;-77
2022/07/04 07:08:04;;;;;;;5.05;2.67;;;;;;;21.44;70.25;93275.13;2071668;69;20213;-76
2022/07/04 07:10:32;;;;;;;3.47;2.75;;;;;;;21.39;70.51;93282.13;2071492;69;20152;-73
2022/07/04 07:12:59;;;;;;;3.55;2.90;;;;;;;21.48;68.54;93283.81;2071749;69;20235;-74
2022/07/04 07:15:25;;;;;;;3.20;2.60;;;;;;;21.49;69.41;93284.59;2071669;69;20573;-74
2022/07/04 07:17:50;;;;;;;3.75;2.75;;;;;;;21.51;67.60;93278.91;2071583;69;20203;-75
2022/07/04 07:20:16;;;;;;;3.90;2.60;;;;;;;21.47;69.66;93285.22;2068277;69;20147;-76
2022/07/04 07:22:42;;;;;;;4.80;2.70;;;;;;;21.47;70.17;93282.38;2072023;69;20156;-78
2022/07/04 07:25:10;;;;;;;4.72;2.75;;;;;;;21.54;68.35;93277.56;2072036;69;20698;-77
2022/07/04 07:27:36;;;;;;;4.28;2.80;;;;;;;21.53;71.20;93273.97;2068906;69;20144;-77
2022/07/04 07:30:03;;;;;;;3.50;2.78;;;;;;;21.48;71.36;93278.09;2072132;69;20534;-78
2022/07/04 07:32:29;;;;;;;4.80;3.10;;;;;;;21.56;71.70;93289.06;2072076;69;20141;-79
2022/07/04 07:34:55;;;;;;;6.60;2.67;;;;;;;21.65;70.50;93282.16;2072064;69;20144;-77
2022/07/04 07:37:22;;;;;;;4.20;2.90;;;;;;;21.61;69.34;93276.31;2072126;69;20176;-77
2022/07/04 07:39:49;;;;;;;3.85;2.67;;;;;;;21.42;71.60;93269.34;2071982;69;20128;-77
2022/07/04 07:42:16;;;;;;;5.60;3.00;;;;;;;21.32;70.29;93269.03;2072091;69;20155;-74
2022/07/04 07:44:47;;;;;;;4.72;2.67;;;;;;;21.56;67.92;93269.75;2068592;69;20220;-76
2022/07/04 07:47:13;;;;;;;8.63;2.80;;;;;;;21.87;67.06;93264.16;2072122;69;20198;-75
2022/07/04 07:49:40;;;;;;;4.45;2.78;;;;;;;21.86;69.81;93251.25;2072109;69;20143;-74
2022/07/04 07:52:06;;;;;;;3.53;2.63;;;;;;;21.92;69.82;93243.53;2065911;69;20141;-75
2022/07/04 07:54:31;;;;;;;4.95;2.60;;;;;;;22.23;67.25;93242.22;2071976;69;20160;-77
2022/07/04 07:56:57;;;;;;;2.47;2.10;;;;;;;22.55;64.50;93250.19;2072317;69;20241;-79
2022/07/04 07:59:23;;;;;;;2.83;2.33;;;;;;;22.24;66.18;93240.81;2072136;69;20290;-76
2022/07/04 08:01:48;;;;;;;3.35;2.50;;;;;;;22.53;65.73;93242.25;2068648;69;20140;-77
2022/07/04 08:06:58;;;;;;;2.63;2.10;;;;;;;22.33;62.93;93222.41;2072420;69;20148;-76
2022/07/04 08:09:24;;;;;;;3.30;2.25;;;;;;;22.52;62.63;93220.00;2068046;69;20163;-79
2022/07/04 08:11:49;;;;;;;4.82;2.67;;;;;;;22.74;65.49;93211.19;2068783;69;20141;-76
2022/07/04 08:14:15;;;;;;;5.47;2.45;;;;;;;22.79;66.32;93204.88;2068651;69;20187;-77
2022/07/04 08:16:41;;;;;;;2.63;2.30;;;;;;;22.78;68.27;93194.81;2068673;69;20248;-81
2022/07/04 08:19:06;;;;;;;4.45;2.30;;;;;;;22.83;66.66;93207.09;2068889;69;20515;-76
2022/07/04 08:21:32;;;;;;;4.15;2.40;;;;;;;22.73;67.53;93219.09;2068693;69;20236;-77
2022/07/04 08:23:58;;;;;;;5.50;2.38;;;;;;;22.77;65.01;93221.28;2068666;69;20168;-77
2022/07/04 08:26:24;;;;;;;2.85;2.20;;;;;;;22.79;64.01;93216.34;2068602;69;20129;-76
2022/07/04 08:28:51;;;;;;;4.15;2.60;;;;;;;22.80;65.70;93208.47;2068699;69;20607;-77
2022/07/04 08:31:18;;;;;;;5.43;2.35;;;;;;;22.82;65.89;93212.13;2068619;69;20172;-77
2022/07/04 08:33:44;;;;;;;5.22;2.30;;;;;;;22.96;65.57;93200.25;2067971;69;20534;-79
2022/07/04 08:36:10;;;;;;;3.00;2.33;;;;;;;22.88;65.89;93199.31;2068650;69;20141;-77
2022/07/04 08:38:35;;;;;;;3.28;2.38;;;;;;;22.83;65.68;93204.97;2068541;69;20148;-78
2022/07/04 08:41:03;;;;;;;2.95;2.22;;;;;;;22.86;64.37;93199.97;2068774;69;20153;-80
2022/07/04 08:43:35;;;;;;;5.32;2.35;;;;;;;22.69;67.41;93210.38;2068736;69;20684;-76
2022/07/04 08:46:04;;;;;;;2.77;2.20;;;;;;;22.60;65.64;93208.00;2068635;69;20531;-77
2022/07/04 08:48:31;;;;;;;3.35;2.60;;;;;;;22.43;66.58;93204.72;2068603;69;20149;-76
2022/07/04 08:51:09;;;;;;;4.18;2.63;;;;;;;22.19;68.31;93204.13;2068901;69;20156;-75
2022/07/04 08:53:39;;;;;;;5.85;2.28;;;;;;;22.27;67.02;93210.06;2068510;69;20144;-78
2022/07/04 08:58:55;;;;;;;4.07;2.58;;;;;;;22.10;67.04;93217.47;2068672;69;20197;-76
2022/07/04 09:01:21;;;;;;;3.00;2.40;;;;;;;22.03;68.24;93221.59;2068657;69;20227;-76
2022/07/04 09:03:47;;;;;;;2.75;2.30;;;;;;;22.06;67.82;93223.84;2068592;69;20139;-76
2022/07/04 09:06:12;;;;;;;7.05;2.80;;;;;;;21.83;68.88;93231.09;2068636;69;20550;-76
2022/07/04 09:08:39;;;;;;;4.43;2.30;;;;;;;21.94;68.54;93239.97;2067992;69;20683;-76
2022/07/04 09:11:07;;;;;;;4.47;2.45;;;;;;;22.16;65.30;93257.06;2068036;69;20154;-76
2022/07/04 09:13:33;;;;;;;7.20;2.40;;;;;;;21.94;68.49;93268.63;2068021;69;20160;-75
2022/07/04 09:16:00;;;;;;;6.18;2.30;;;;;;;21.74;70.00;93278.13;2067941;69;20212;-76
2022/07/04 09:18:27;;;;;;;2.92;2.40;;;;;;;21.65;69.57;93287.19;2068630;69;20168;-76
2022/07/04 09:20:56;;;;;;;8.05;2.65;;;;;;;21.75;67.46;93293.91;2067942;69;20227;-77
2022/07/04 09:23:26;;;;;;;4.68;2.67;;;;;;;21.64;69.56;93306.50;2068424;69;20599;-78
2022/07/04 09:26:17;;;;;;;9.43;3.40;;;;;;;21.62;69.82;93311.44;2067997;69;20259;-77
2022/07/04 09:28:50;;;;;;;4.07;2.53;;;;;;;21.70;67.01;93320.28;2068705;69;20281;-76
2022/07/04 09:31:19;;;;;;;4.75;2.40;;;;;;;21.60;68.42;93320.72;2068000;69;20148;-76
2022/07/04 09:33:45;;;;;;;4.00;2.33;;;;;;;21.47;70.33;93316.00;2068490;69;20190;-79
2022/07/04 09:36:15;;;;;;;5.00;2.47;;;;;;;21.39;70.36;93312.91;2068515;69;20132;-79
2022/07/04 09:38:42;;;;;;;4.28;2.63;;;;;;;21.43;68.75;93307.28;2068422;69;20523;-78
2022/07/04 09:41:26;;;;;;;6.78;2.90;;;;;;;21.23;71.46;93304.53;2068599;69;20144;-78
2022/07/04 09:44:00;;;;;;;3.58;2.72;;;;;;;21.29;70.64;93316.88;2067871;69;20535;-79
2022/07/04 09:46:26;;;;;;;6.75;3.00;;;;;;;21.07;72.59;93319.06;2068584;69;20149;-78
2022/07/04 09:48:52;;;;;;;9.20;2.72;;;;;;;21.06;72.45;93318.31;2068047;69;20176;-76
2022/07/04 09:51:44;;;;;;;4.85;2.60;;;;;;;21.24;70.57;93303.13;2068453;69;20155;-77
2022/07/04 09:54:21;;;;;;;7.85;3.58;;;;;;;21.04;71.30;93306.81;2068389;69;20156;-77
2022/07/04 09:56:51;;;;;;;6.78;2.40;;;;;;;21.09;68.89;93318.41;2068520;69;20156;-77
2022/07/04 09:59:18;;;;;;;4.50;2.15;;;;;;;21.10;70.38;93332.03;2068431;69;20595;-79
2022/07/04 10:01:44;;;;;;;6.18;3.17;;;;;;;20.81;73.13;93336.13;2067879;69;20159;-77
2022/07/04 10:04:13;;;;;;;5.78;2.80;;;;;;;20.96;72.43;93338.03;2068517;69;20141;-77
2022/07/04 10:06:41;;;;;;;7.57;3.25;;;;;;;20.96;71.73;93332.31;2068095;69;20145;-77
2022/07/04 10:09:12;;;;;;;4.90;3.28;;;;;;;20.97;72.43;93328.06;2059445;69;20140;-76
2022/07/04 10:11:40;;;;;;;6.97;3.20;;;;;;;21.02;72.34;93323.19;2068596;69;20141;-76
2022/07/04 10:14:07;;;;;;;5.50;3.05;;;;;;;20.88;70.52;93317.75;2068460;69;20615;-76
2022/07/04 10:16:35;;;;;;;5.97;2.80;;;;;;;20.88;71.31;93312.03;2068433;69;20152;-77
2022/07/04 10:19:03;;;;;;;4.88;2.60;;;;;;;21.09;69.17;93307.69;2068382;69;20160;-76
2022/07/04 10:21:30;;;;;;;5.95;3.30;;;;;;;21.07;69.75;93301.88;2067900;69;20141;-78
2022/07/04 10:23:56;;;;;;;5.18;2.78;;;;;;;20.97;71.73;93290.13;2068252;69;20121;-79
2022/07/04 10:26:23;;;;;;;5.05;2.50;;;;;;;21.00;70.04;93286.66;2068387;69;20148;-80
2022/07/04 10:28:51;;;;;;;4.00;2.60;;;;;;;21.05;70.71;93278.94;2067919;69;20152;-79
2022/07/04 10:31:17;;;;;;;2.60;2.38;;;;;;;20.97;70.88;93270.09;2068452;69;20141;-77
2022/07/04 10:33:43;;;;;;;2.88;2.53;;;;;;;21.16;69.74;93263.50;2068393;69;20153;-77
2022/07/04 10:36:17;;;;;;;5.53;2.70;;;;;;;20.99;71.44;93253.00;2067723;69;20609;-76
2022/07/04 10:39:03;;;;;;;3.88;2.78;;;;;;;20.70;71.98;93249.22;2068265;69;20168;-79
2022/07/04 10:41:30;;;;;;;5.32;2.60;;;;;;;20.78;71.87;93240.91;2068282;69;20153;-78
2022/07/04 10:44:09;;;;;;;3.50;2.33;;;;;;;20.85;70.11;93227.53;2067885;69;20131;-79
2022/07/04 10:46:49;;;;;;;6.88;2.47;;;;;;;20.49;71.07;93230.69;2067878;69;20152;-80
2022/07/04 10:49:21;;;;;;;5.50;2.70;;;;;;;20.75;70.65;93247.22;2068400;69;20148;-77
2022/07/04 10:51:51;;;;;;;8.02;2.92;;;;;;;20.80;71.54;93251.66;2068362;69;20151;-77
2022/07/04 10:54:20;;;;;;;6.45;3.05;;;;;;;21.55;69.19;93251.09;2068118;69;20183;-77
2022/07/04 10:56:52;;;;;;;4.95;2.30;;;;;;;22.00;70.56;93255.22;2067271;69;20175;-76
2022/07/04 10:59:29;;;;;;;5.63;2.80;;;;;;;22.52;66.73;93251.56;2066976;69;20220;-75
2022/07/04 11:02:06;;;;;;;6.53;2.53;;;;;;;22.93;68.85;93249.69;2067732;69;20144;-75
2022/07/04 11:04:52;;;;;;;5.10;2.67;;;;;;;23.47;66.54;93232.97;2067252;69;20247;-75
2022/07/04 11:07:20;;;;;;;3.15;2.50;;;;;;;23.49;63.25;93224.38;2068149;69;20149;-76
2022/07/04 11:09:47;;;;;;;6.28;3.10;;;;;;;23.37;63.79;93229.13;2070264;69;20152;-75
2022/07/04 11:12:14;;;;;;;4.32;3.22;;;;;;;22.93;65.70;93221.00;2071344;69;20168;-75
2022/07/04 11:14:44;;;;;;;5.20;2.65;;;;;;;23.63;62.42;93223.22;2071358;69;20155;-75
2022/07/04 11:17:20;;;;;;;7.10;2.97;;;;;;;23.56;64.76;93225.25;2071185;69;20146;-75
2022/07/04 11:19:46;;;;;;;5.30;3.40;;;;;;;23.84;61.82;93236.59;2071331;69;20187;-76
2022/07/04 11:22:21;;;;;;;5.05;2.40;;;;;;;23.85;59.03;93232.31;2068097;69;20198;-75
2022/07/04 11:24:46;;;;;;;2.75;2.38;;;;;;;24.83;59.16;93226.19;2071284;69;20148;-75
2022/07/04 11:27:12;;;;;;;5.00;2.30;;;;;;;25.21;56.59;93225.31;2065450;69;20163;-77
2022/07/04 11:29:50;;;;;;;2.80;2.15;;;;;;;24.97;56.07;93228.56;2071548;69;20138;-78
2022/07/04 11:32:15;;;;;;;5.30;2.60;;;;;;;24.95;56.01;93216.25;2071260;69;20191;-76
2022/07/04 11:34:41;;;;;;;4.85;2.53;;;;;;;25.09;55.55;93216.50;2071029;69;20155;-77
2022/07/04 11:37:07;;;;;;;2.92;2.10;;;;;;;25.09;58.50;93213.63;2065169;69;20160;-75
2022/07/04 11:39:32;;;;;;;2.97;2.10;;;;;;;25.10;58.43;93204.28;2067912;69;20148;-77
2022/07/04 11:47:36;;;;;;;4.53;2.30;;;;;;;26.12;56.66;93187.56;2068029;69;20605;-76
2022/07/04 11:50:11;;;;;;;3.47;2.20;;;;;;;26.20;53.83;93184.72;2068198;69;20199;-77
2022/07/04 11:52:37;;;;;;;6.70;2.33;;;;;;;25.42;55.03;93177.34;2068003;69;20141;-75
2022/07/04 11:55:08;;;;;;;2.42;1.85;;;;;;;25.27;55.52;93176.44;2064506;69;20239;-76
2022/07/04 11:57:38;;;;;;;3.45;2.30;;;;;;;24.77;55.71;93179.28;2068228;69;20144;-76